Time;durP1;ratioP1;P1;durP2;ratioP2;P2;SDS_P1;SDS_P2;PMS_P1;PMS_P2;Temp;Humidity;BMP_temperature;BMP_pressure;BME280_temperature;BME280_humidity;BME280_pressure;Samples;Min_cycle;Max_cycle;Signal;HPM_P1;HPM_P2
2022/01/17 00:00:16;;;;;;;23.80;14.93;;;2.30;99.90;;;;;;5057864;28;20187;-83
2022/01/17 00:02:42;;;;;;;27.07;15.97;;;2.30;99.90;;;;;;5039032;28;20250;-82
2022/01/17 00:05:09;;;;;;;26.30;15.57;;;2.30;99.90;;;;;;5056429;28;20744;-83
2022/01/17 00:07:35;;;;;;;22.80;15.57;;;2.30;99.90;;;;;;5038938;28;20271;-82
2022/01/17 00:10:01;;;;;;;29.07;17.67;;;2.30;99.90;;;;;;5038114;28;20699;-81
2022/01/17 00:12:29;;;;;;;27.17;15.83;;;2.30;99.90;;;;;;5039253;28;20262;-82
2022/01/17 00:14:56;;;;;;;28.63;16.37;;;2.40;99.90;;;;;;5058407;28;20196;-82
2022/01/17 00:19:52;;;;;;;31.13;17.10;;;2.40;99.90;;;;;;5061905;28;20182;-81
2022/01/17 00:22:20;;;;;;;27.80;16.70;;;2.40;99.90;;;;;;5060581;28;20197;-82
2022/01/17 00:24:46;;;;;;;29.73;16.80;;;2.50;99.90;;;;;;5060555;28;20170;-82
2022/01/17 00:27:13;;;;;;;32.47;17.57;;;2.50;99.90;;;;;;5060801;28;20186;-81
2022/01/17 00:29:39;;;;;;;27.20;16.63;;;2.60;99.90;;;;;;5060200;28;20209;-81
2022/01/17 00:32:05;;;;;;;26.47;16.73;;;2.50;99.90;;;;;;5042294;28;20602;-81
2022/01/17 00:34:31;;;;;;;27.03;16.63;;;2.50;99.90;;;;;;5060081;28;20589;-83
2022/01/17 00:36:57;;;;;;;30.07;17.63;;;2.50;99.90;;;;;;5040395;28;20189;-82
2022/01/17 00:39:24;;;;;;;29.90;16.03;;;2.50;99.90;;;;;;5060520;28;20552;-82
2022/01/17 00:41:50;;;;;;;29.37;17.47;;;2.60;99.90;;;;;;5060026;28;20180;-81
2022/01/17 00:44:20;;;;;;;29.17;16.67;;;2.80;99.90;;;;;;5059558;28;20742;-82
2022/01/17 00:46:46;;;;;;;25.10;17.30;;;2.50;99.90;;;;;;5042117;28;20552;-82
2022/01/17 00:49:12;;;;;;;28.73;16.70;;;2.70;99.90;;;;;;5042321;28;20261;-81
2022/01/17 00:51:37;;;;;;;29.60;17.03;;;2.50;99.90;;;;;;5061357;28;20186;-83
2022/01/17 00:54:03;;;;;;;26.37;16.37;;;2.50;99.90;;;;;;5061003;28;20178;-81
2022/01/17 00:56:28;;;;;;;26.53;16.50;;;2.40;99.90;;;;;;5059904;28;20251;-82
2022/01/17 00:58:54;;;;;;;27.20;16.60;;;2.40;99.90;;;;;;5059602;28;20262;-82
2022/01/17 01:01:20;;;;;;;28.83;17.73;;;2.40;99.90;;;;;;5059427;28;20549;-82
2022/01/17 01:03:46;;;;;;;31.23;16.93;;;2.40;99.90;;;;;;5060017;28;20179;-81
2022/01/17 01:06:12;;;;;;;32.03;18.40;;;2.50;99.90;;;;;;5059970;28;20280;-80
2022/01/17 01:08:37;;;;;;;31.33;17.90;;;2.40;99.90;;;;;;5060992;28;20650;-81
2022/01/17 01:11:03;;;;;;;30.47;16.97;;;2.40;99.90;;;;;;5060253;28;20198;-82
2022/01/17 01:13:30;;;;;;;31.00;17.97;;;2.50;99.90;;;;;;5060246;28;20181;-81
2022/01/17 01:29:09;;;;;;;30.10;15.67;;;2.50;99.90;;;;;;5059495;28;20287;-82
2022/01/17 01:31:44;;;;;;;31.43;17.07;;;2.50;99.90;;;;;;5042402;28;20645;-81
2022/01/17 01:34:11;;;;;;;31.60;17.13;;;2.40;99.90;;;;;;5045347;28;20180;-81
2022/01/17 01:36:37;;;;;;;28.83;16.27;;;2.60;99.90;;;;;;5050593;28;20195;-81
2022/01/17 01:39:07;;;;;;;31.43;17.00;;;2.40;99.90;;;;;;5051047;28;20182;-81
2022/01/17 01:41:41;;;;;;;29.97;17.07;;;2.30;99.90;;;;;;5061025;28;20257;-81
2022/01/17 01:44:19;;;;;;;28.97;16.40;;;2.30;99.90;;;;;;5041410;28;20170;-82
2022/01/17 01:46:46;;;;;;;33.07;17.77;;;2.30;99.90;;;;;;5057897;28;20201;-81
2022/01/17 01:49:13;;;;;;;29.53;16.57;;;2.20;99.90;;;;;;5057672;28;20389;-81
2022/01/17 01:51:39;;;;;;;31.17;16.63;;;2.20;99.90;;;;;;5040974;28;20588;-82
2022/01/17 01:54:05;;;;;;;29.10;15.70;;;2.20;99.90;;;;;;5040536;28;20177;-80
2022/01/17 01:56:30;;;;;;;31.87;16.50;;;2.20;99.90;;;;;;5040177;28;20679;-82
2022/01/17 01:58:58;;;;;;;25.30;15.97;;;2.20;99.90;;;;;;5058582;28;20185;-81
2022/01/17 02:01:23;;;;;;;33.50;17.00;;;2.50;99.90;;;;;;5058210;28;20214;-81
2022/01/17 02:03:49;;;;;;;27.37;16.63;;;2.30;99.90;;;;;;5040463;28;20181;-82
2022/01/17 02:06:14;;;;;;;31.70;17.53;;;2.20;99.90;;;;;;5041396;28;20204;-83
2022/01/17 02:08:40;;;;;;;33.13;18.47;;;2.30;99.90;;;;;;5058474;28;20188;-81
2022/01/17 02:11:10;;;;;;;27.33;17.07;;;2.30;99.90;;;;;;5040165;28;20277;-81
2022/01/17 02:13:38;;;;;;;35.83;18.00;;;2.30;99.90;;;;;;5039674;28;20181;-82
2022/01/17 02:16:09;;;;;;;31.47;17.77;;;2.30;99.90;;;;;;5039991;28;20202;-82
2022/01/17 02:18:35;;;;;;;28.37;17.07;;;2.20;99.90;;;;;;5040336;28;20175;-81
2022/01/17 02:23:39;;;;;;;37.53;18.87;;;2.10;99.90;;;;;;5057961;28;20191;-82
2022/01/17 02:26:05;;;;;;;30.60;18.97;;;2.10;99.90;;;;;;5040312;28;20205;-81
2022/01/17 02:28:33;;;;;;;30.03;17.40;;;2.30;99.90;;;;;;5057607;28;20180;-82
2022/01/17 02:31:00;;;;;;;32.93;17.87;;;2.00;99.90;;;;;;5056952;28;20198;-82
2022/01/17 02:33:26;;;;;;;28.27;17.03;;;2.00;99.90;;;;;;5057409;28;20179;-82
2022/01/17 02:35:53;;;;;;;34.93;17.83;;;2.00;99.90;;;;;;5060764;28;20228;-81
2022/01/17 02:38:18;;;;;;;30.57;17.83;;;2.00;99.90;;;;;;5058453;28;20230;-82
2022/01/17 02:40:44;;;;;;;30.87;17.70;;;2.20;99.90;;;;;;5059667;28;20185;-82
2022/01/17 02:43:10;;;;;;;36.30;18.30;;;2.00;99.90;;;;;;5065014;28;20186;-82
2022/01/17 02:46:24;;;;;;;33.77;18.53;;;2.10;99.90;;;;;;5047669;28;20212;-81
2022/01/17 02:48:24;;;;;;;30.13;16.83;;;2.00;99.90;;;;;;5060662;28;20178;-82
2022/01/17 02:50:50;;;;;;;30.77;17.50;;;2.00;99.90;;;;;;5059358;28;20197;-81
2022/01/17 02:53:16;;;;;;;31.73;17.37;;;2.30;99.90;;;;;;5039941;28;20175;-82
2022/01/17 02:55:49;;;;;;;31.57;16.93;;;2.00;99.90;;;;;;5040420;28;20202;-82
2022/01/17 02:58:17;;;;;;;25.83;16.03;;;2.00;99.90;;;;;;5057656;28;20187;-83
2022/01/17 03:00:43;;;;;;;26.50;15.93;;;2.00;99.90;;;;;;5058731;28;20313;-81
2022/01/17 03:03:17;;;;;;;31.27;17.63;;;2.10;99.90;;;;;;5057824;28;20231;-82
2022/01/17 03:05:43;;;;;;;27.30;16.53;;;2.30;99.90;;;;;;5057349;28;20278;-82
2022/01/17 03:08:09;;;;;;;25.40;15.70;;;2.10;99.90;;;;;;5039743;28;20261;-82
2022/01/17 03:10:43;;;;;;;29.23;16.40;;;2.20;99.90;;;;;;5057379;28;20190;-82
2022/01/17 03:13:25;;;;;;;30.57;15.93;;;2.20;99.90;;;;;;5038983;28;20269;-82
2022/01/17 03:15:57;;;;;;;27.00;16.17;;;2.10;99.90;;;;;;5054994;28;20194;-81
2022/01/17 03:18:24;;;;;;;26.57;15.93;;;2.20;99.90;;;;;;5048271;28;20190;-82
2022/01/17 03:20:49;;;;;;;26.63;15.40;;;2.20;99.90;;;;;;5038694;28;20612;-81
2022/01/17 03:23:15;;;;;;;25.03;14.90;;;2.20;99.90;;;;;;5055265;28;20177;-82
2022/01/17 03:25:41;;;;;;;25.23;14.77;;;2.10;99.90;;;;;;5056054;28;20201;-82
2022/01/17 03:28:07;;;;;;;24.00;14.93;;;2.10;99.90;;;;;;5041050;28;20195;-82
2022/01/17 03:30:33;;;;;;;23.83;14.70;;;2.00;99.90;;;;;;5057382;28;20198;-82
2022/01/17 03:33:11;;;;;;;24.37;15.23;;;2.00;99.90;;;;;;5056155;28;20173;-82
2022/01/17 03:35:38;;;;;;;25.83;15.70;;;2.10;99.90;;;;;;5038429;28;20205;-81
2022/01/17 03:38:18;;;;;;;24.33;14.93;;;2.20;99.90;;;;;;5056994;28;20733;-82
2022/01/17 03:40:49;;;;;;;29.47;16.43;;;2.00;99.90;;;;;;5040046;28;20217;-81
2022/01/17 03:43:16;;;;;;;23.80;14.70;;;2.00;99.90;;;;;;5038867;28;20182;-82
2022/01/17 03:45:42;;;;;;;27.23;16.00;;;2.20;99.90;;;;;;5056227;28;20202;-81
2022/01/17 03:48:08;;;;;;;28.20;16.10;;;2.40;99.90;;;;;;5056272;28;20186;-81
2022/01/17 03:50:35;;;;;;;25.83;16.13;;;2.00;99.90;;;;;;5039303;28;20197;-81
2022/01/17 03:53:01;;;;;;;28.43;16.23;;;2.10;99.90;;;;;;5059270;28;20171;-81
2022/01/17 03:55:28;;;;;;;25.40;15.90;;;2.00;99.90;;;;;;5060105;28;20209;-81
2022/01/17 03:57:53;;;;;;;26.23;15.90;;;2.00;99.90;;;;;;5042577;28;20217;-82
2022/01/17 04:00:24;;;;;;;26.90;15.33;;;2.00;99.90;;;;;;5060040;28;20661;-81
2022/01/17 04:02:51;;;;;;;25.57;15.93;;;2.00;99.90;;;;;;5030252;28;20182;-82
2022/01/17 04:05:17;;;;;;;27.63;15.70;;;2.00;99.90;;;;;;5059365;28;20204;-81
2022/01/17 04:07:43;;;;;;;28.90;15.70;;;2.00;99.90;;;;;;5042162;28;20691;-81
2022/01/17 04:10:09;;;;;;;27.87;15.83;;;2.00;99.90;;;;;;5060579;28;20229;-82
2022/01/17 04:12:34;;;;;;;25.47;15.47;;;1.90;99.90;;;;;;5060289;28;20638;-82
2022/01/17 04:15:00;;;;;;;27.73;16.07;;;1.90;99.90;;;;;;5060422;28;20235;-82
2022/01/17 04:17:29;;;;;;;23.30;15.73;;;1.90;99.90;;;;;;5042136;28;20680;-82
2022/01/17 04:20:03;;;;;;;30.03;15.47;;;1.80;99.90;;;;;;5060688;28;20265;-82
2022/01/17 04:22:36;;;;;;;30.73;16.87;;;1.80;99.90;;;;;;5043230;28;20178;-82
2022/01/17 04:25:03;;;;;;;26.50;15.57;;;1.90;99.90;;;;;;5060570;28;20698;-82
2022/01/17 04:27:29;;;;;;;28.17;17.10;;;1.90;99.90;;;;;;5060043;28;20220;-82
2022/01/17 04:29:54;;;;;;;27.90;16.23;;;1.90;99.90;;;;;;5041872;28;20203;-82
2022/01/17 04:32:20;;;;;;;24.33;16.03;;;1.90;99.90;;;;;;5060785;28;20262;-81
2022/01/17 04:34:46;;;;;;;25.37;15.53;;;1.80;99.90;;;;;;5059130;28;20185;-81
2022/01/17 04:37:12;;;;;;;26.47;16.47;;;2.30;99.90;;;;;;5058989;28;20177;-82
2022/01/17 04:39:37;;;;;;;28.37;15.90;;;1.90;99.90;;;;;;5042184;28;20626;-82
2022/01/17 04:42:10;;;;;;;31.20;17.67;;;1.80;99.90;;;;;;5043254;28;20636;-82
2022/01/17 04:47:21;;;;;;;36.30;18.60;;;1.60;99.90;;;;;;5060332;28;20277;-81
2022/01/17 04:49:47;;;;;;;33.87;17.87;;;1.50;99.90;;;;;;5059398;28;20198;-82
2022/01/17 04:52:14;;;;;;;26.67;17.30;;;1.50;99.90;;;;;;5062733;28;20194;-82
2022/01/17 04:54:43;;;;;;;34.63;18.93;;;1.50;99.90;;;;;;5068127;28;20195;-82
2022/01/17 04:57:11;;;;;;;30.57;18.60;;;1.50;99.90;;;;;;5070253;28;20193;-82
2022/01/17 04:59:39;;;;;;;34.37;18.47;;;1.50;99.90;;;;;;5069565;28;20181;-82
2022/01/17 05:02:06;;;;;;;26.90;16.77;;;1.50;99.90;;;;;;5067455;28;20194;-82
2022/01/17 05:04:32;;;;;;;33.17;18.10;;;1.60;99.90;;;;;;5046767;28;20181;-82
2022/01/17 05:06:58;;;;;;;30.93;17.50;;;1.60;99.90;;;;;;5054154;28;20204;-82
2022/01/17 05:09:24;;;;;;;33.83;18.23;;;1.60;99.90;;;;;;5058804;28;20683;-82
2022/01/17 05:11:50;;;;;;;28.57;17.13;;;1.70;99.90;;;;;;5059625;28;20189;-82
2022/01/17 05:14:15;;;;;;;34.43;18.80;;;2.20;99.90;;;;;;5042151;28;20176;-81
2022/01/17 05:16:47;;;;;;;29.37;17.03;;;1.70;99.90;;;;;;5059230;28;20574;-82
2022/01/17 05:21:57;;;;;;;33.50;17.97;;;1.70;99.90;;;;;;5060094;28;20185;-83
2022/01/17 05:24:23;;;;;;;35.20;19.13;;;1.70;99.90;;;;;;5059682;28;20190;-81
2022/01/17 05:26:48;;;;;;;28.43;17.63;;;1.70;99.90;;;;;;5060229;28;20194;-82
2022/01/17 05:29:15;;;;;;;27.90;17.03;;;1.80;99.90;;;;;;5059995;28;20166;-81
2022/01/17 05:31:40;;;;;;;30.63;17.37;;;1.70;99.90;;;;;;5059264;28;20545;-82
2022/01/17 05:34:06;;;;;;;32.03;16.87;;;1.70;99.90;;;;;;5059281;28;20174;-82
2022/01/17 05:36:32;;;;;;;29.27;17.57;;;1.70;99.90;;;;;;5060010;28;20205;-82
2022/01/17 05:38:57;;;;;;;26.17;16.77;;;1.80;99.90;;;;;;5058786;28;20241;-80
2022/01/17 05:41:23;;;;;;;30.63;17.87;;;1.90;99.90;;;;;;5056649;28;20649;-83
2022/01/17 05:43:49;;;;;;;30.27;18.17;;;1.90;99.90;;;;;;5053940;28;20547;-83
2022/01/17 05:46:14;;;;;;;31.77;16.93;;;1.80;99.90;;;;;;5035852;28;20243;-81
2022/01/17 05:48:40;;;;;;;28.73;16.93;;;1.90;99.90;;;;;;5060263;28;20235;-80
2022/01/17 05:51:06;;;;;;;30.47;18.57;;;1.90;99.90;;;;;;5041390;28;20578;-80
2022/01/17 05:53:32;;;;;;;29.37;17.57;;;2.00;99.90;;;;;;5034973;28;20719;-81
2022/01/17 05:55:58;;;;;;;34.03;18.70;;;1.80;99.90;;;;;;5056009;28;20288;-80
2022/01/17 05:58:23;;;;;;;37.03;20.23;;;1.80;99.90;;;;;;5037712;28;20273;-81
2022/01/17 06:00:49;;;;;;;42.13;21.70;;;1.80;99.90;;;;;;5039073;28;20186;-81
2022/01/17 06:03:15;;;;;;;33.33;19.03;;;1.80;99.90;;;;;;5039713;28;20206;-81
2022/01/17 06:05:41;;;;;;;40.07;21.23;;;1.80;99.90;;;;;;5040629;28;20259;-81
2022/01/17 06:08:07;;;;;;;54.67;25.60;;;1.80;99.90;;;;;;5057850;28;20698;-81
2022/01/17 06:10:33;;;;;;;35.63;19.80;;;1.80;99.90;;;;;;5055637;28;20303;-81
2022/01/17 06:13:01;;;;;;;51.60;23.73;;;1.80;99.90;;;;;;5055861;28;20181;-81
2022/01/17 06:15:26;;;;;;;50.47;24.00;;;1.90;99.90;;;;;;5056307;28;20190;-81
2022/01/17 06:17:52;;;;;;;36.83;19.97;;;1.90;99.90;;;;;;5056903;28;20182;-81
2022/01/17 06:20:18;;;;;;;33.50;17.37;;;1.90;99.90;;;;;;5056962;28;20207;-80
2022/01/17 06:22:44;;;;;;;32.27;18.00;;;2.00;99.90;;;;;;5051408;28;20201;-81
2022/01/17 06:25:10;;;;;;;28.57;17.37;;;3.00;99.90;;;;;;5043414;28;20218;-81
2022/01/17 06:27:35;;;;;;;32.87;18.23;;;2.00;99.90;;;;;;5054039;28;20260;-82
2022/01/17 06:30:01;;;;;;;37.93;20.00;;;2.00;99.90;;;;;;5057815;28;20217;-80
2022/01/17 06:32:28;;;;;;;33.20;18.80;;;2.10;99.90;;;;;;5057873;28;20641;-81
2022/01/17 06:34:54;;;;;;;31.80;18.00;;;2.00;99.90;;;;;;5063645;28;20222;-81
2022/01/17 06:37:21;;;;;;;37.43;20.70;;;2.00;99.90;;;;;;5043332;28;20216;-83
2022/01/17 06:39:46;;;;;;;41.47;23.07;;;2.10;99.90;;;;;;5042028;28;20302;-82
2022/01/17 06:42:12;;;;;;;34.10;19.23;;;2.00;99.90;;;;;;5054311;28;20263;-82
2022/01/17 06:44:38;;;;;;;37.23;18.57;;;2.80;99.90;;;;;;5050453;28;20188;-82
2022/01/17 06:47:04;;;;;;;32.10;17.80;;;2.00;99.90;;;;;;5048433;28;20260;-81
2022/01/17 06:49:32;;;;;;;53.80;26.90;;;2.00;99.90;;;;;;5052955;28;20194;-80
2022/01/17 06:51:57;;;;;;;30.80;17.90;;;2.00;99.90;;;;;;5038443;28;20776;-82
2022/01/17 06:54:23;;;;;;;35.67;19.67;;;2.00;99.90;;;;;;5044221;28;20198;-82
2022/01/17 06:56:54;;;;;;;31.47;18.43;;;2.00;99.90;;;;;;5046747;28;20209;-82
2022/01/17 06:59:23;;;;;;;31.00;18.60;;;2.10;99.90;;;;;;5037434;28;20248;-81
2022/01/17 07:01:49;;;;;;;31.80;19.10;;;2.00;99.90;;;;;;5038669;28;20179;-81
2022/01/17 07:04:14;;;;;;;30.07;17.63;;;2.10;99.90;;;;;;5039788;28;20194;-83
2022/01/17 07:06:40;;;;;;;30.80;18.13;;;2.10;99.90;;;;;;5038677;28;20301;-83
2022/01/17 07:09:09;;;;;;;28.20;17.17;;;2.10;99.90;;;;;;5046792;28;20283;-82
2022/01/17 07:11:38;;;;;;;33.97;18.50;;;2.20;99.90;;;;;;5051039;28;20185;-82
2022/01/17 07:14:11;;;;;;;30.40;17.90;;;2.10;99.90;;;;;;5058438;28;20175;-82
2022/01/17 07:16:38;;;;;;;36.80;18.87;;;2.10;99.90;;;;;;5057922;28;20273;-82
2022/01/17 07:19:05;;;;;;;37.57;19.00;;;2.00;99.90;;;;;;5058448;28;20251;-83
2022/01/17 07:21:40;;;;;;;33.07;17.53;;;2.00;99.90;;;;;;5056032;28;20183;-81
2022/01/17 07:24:05;;;;;;;34.13;19.53;;;2.50;99.90;;;;;;5034937;28;20187;-81
2022/01/17 07:26:31;;;;;;;29.37;19.23;;;2.10;99.90;;;;;;5049380;28;20210;-81
2022/01/17 07:28:57;;;;;;;31.83;18.23;;;2.20;99.90;;;;;;5041846;28;20179;-83
2022/01/17 07:31:22;;;;;;;31.27;17.73;;;2.10;99.90;;;;;;5030715;28;20249;-81
2022/01/17 07:33:48;;;;;;;31.00;17.73;;;2.00;99.90;;;;;;5048862;28;20630;-82
2022/01/17 07:36:19;;;;;;;26.53;16.33;;;2.00;99.90;;;;;;5042031;28;20194;-83
2022/01/17 07:38:46;;;;;;;28.90;17.67;;;2.00;99.90;;;;;;5049225;28;20183;-82
2022/01/17 07:41:18;;;;;;;29.13;17.47;;;2.00;99.90;;;;;;5025950;28;20192;-83
2022/01/17 07:43:44;;;;;;;28.97;17.70;;;2.00;99.90;;;;;;5056119;28;20190;-83
2022/01/17 07:46:55;;;;;;;28.10;17.20;;;2.10;99.90;;;;;;5046654;28;20203;-81
2022/01/17 07:51:35;;;;;;;27.67;18.17;;;2.20;99.90;;;;;;5056107;28;20186;-83
2022/01/17 07:54:01;;;;;;;29.30;17.63;;;2.20;99.90;;;;;;5054798;28;20664;-81
2022/01/17 07:56:27;;;;;;;32.50;19.30;;;2.20;99.90;;;;;;5042050;28;20195;-81
2022/01/17 07:58:53;;;;;;;32.00;18.37;;;2.20;99.90;;;;;;5050834;28;20201;-82
2022/01/17 08:01:19;;;;;;;30.57;17.50;;;2.20;99.90;;;;;;5044819;28;20258;-81
2022/01/17 08:03:50;;;;;;;28.27;16.37;;;2.30;99.90;;;;;;5048505;28;20191;-82
2022/01/17 08:06:16;;;;;;;27.00;16.93;;;2.40;99.90;;;;;;5040791;28;20251;-81
2022/01/17 08:08:47;;;;;;;29.43;17.47;;;2.90;99.90;;;;;;5042434;28;20790;-81
2022/01/17 08:11:12;;;;;;;29.87;17.50;;;3.00;99.90;;;;;;5029173;28;20205;-82
2022/01/17 08:13:38;;;;;;;31.37;18.43;;;2.40;99.90;;;;;;5041250;28;20187;-82
2022/01/17 08:16:04;;;;;;;30.10;17.33;;;2.40;99.90;;;;;;5050675;28;20210;-82
2022/01/17 08:18:33;;;;;;;28.43;17.57;;;2.60;99.90;;;;;;5045118;28;20175;-81
2022/01/17 08:20:58;;;;;;;26.33;16.83;;;2.50;99.90;;;;;;5052028;28;20193;-81
2022/01/17 08:23:25;;;;;;;29.20;17.23;;;2.50;99.90;;;;;;5051212;28;20190;-80
2022/01/17 08:25:51;;;;;;;33.37;17.13;;;2.50;99.90;;;;;;5054055;28;20203;-81
2022/01/17 08:28:17;;;;;;;30.77;17.27;;;3.40;99.90;;;;;;5050311;28;20537;-82
2022/01/17 08:30:43;;;;;;;34.53;19.33;;;2.50;99.90;;;;;;5061754;28;20816;-81
2022/01/17 08:33:09;;;;;;;32.77;18.87;;;2.50;99.90;;;;;;5061041;28;20190;-82
2022/01/17 08:35:34;;;;;;;31.10;18.30;;;2.50;99.90;;;;;;5042277;28;20272;-82
2022/01/17 08:38:03;;;;;;;31.13;18.13;;;2.50;99.90;;;;;;5059295;28;20202;-82
2022/01/17 08:40:29;;;;;;;30.73;17.80;;;2.60;99.90;;;;;;5041191;28;20194;-82
2022/01/17 08:42:55;;;;;;;29.57;16.87;;;2.70;99.90;;;;;;5059046;28;20190;-81
2022/01/17 08:45:23;;;;;;;29.93;17.10;;;2.70;99.90;;;;;;5059584;28;20201;-82
2022/01/17 08:47:51;;;;;;;31.27;18.73;;;2.70;99.90;;;;;;5059413;28;20174;-82
2022/01/17 08:50:21;;;;;;;32.90;17.90;;;2.60;99.90;;;;;;5059785;28;20198;-82
2022/01/17 08:52:48;;;;;;;31.40;17.60;;;2.70;99.90;;;;;;5059780;28;20182;-81
2022/01/17 08:55:15;;;;;;;27.63;16.97;;;2.70;99.90;;;;;;5059192;28;20213;-83
2022/01/17 08:57:40;;;;;;;29.93;17.93;;;2.70;99.90;;;;;;5054110;28;20206;-81
2022/01/17 09:00:10;;;;;;;30.07;17.50;;;2.60;99.90;;;;;;5057694;28;20186;-81
2022/01/17 09:02:36;;;;;;;28.40;16.90;;;2.60;99.90;;;;;;5038593;28;20200;-82
2022/01/17 09:05:02;;;;;;;32.77;18.27;;;2.70;99.90;;;;;;5038916;28;20296;-81
2022/01/17 09:07:28;;;;;;;29.13;17.47;;;2.70;99.90;;;;;;5039120;28;20205;-81
2022/01/17 09:09:54;;;;;;;32.40;18.47;;;2.70;99.90;;;;;;5057585;28;20194;-81
2022/01/17 09:12:20;;;;;;;27.77;17.00;;;2.80;99.90;;;;;;5047735;28;20178;-81
2022/01/17 09:14:45;;;;;;;26.13;17.40;;;2.80;99.90;;;;;;5047283;28;20184;-82
2022/01/17 09:17:11;;;;;;;30.13;17.40;;;2.90;99.90;;;;;;5038829;28;20622;-82
2022/01/17 09:19:39;;;;;;;25.67;16.13;;;2.90;99.90;;;;;;5041637;28;20210;-81
2022/01/17 09:22:07;;;;;;;31.03;17.20;;;2.90;99.90;;;;;;5023210;28;20181;-81
2022/01/17 09:24:34;;;;;;;30.27;17.00;;;3.00;99.90;;;;;;5038561;28;20211;-82
2022/01/17 09:27:00;;;;;;;26.73;16.37;;;3.10;99.90;;;;;;5048321;28;20194;-81
2022/01/17 09:29:25;;;;;;;26.73;16.20;;;3.10;99.90;;;;;;5052621;28;20229;-81
2022/01/17 09:31:51;;;;;;;27.50;16.70;;;3.40;99.90;;;;;;5039745;28;20618;-81
2022/01/17 09:34:17;;;;;;;29.23;17.47;;;3.10;99.90;;;;;;5033636;28;20179;-81
2022/01/17 09:36:42;;;;;;;33.20;17.50;;;3.10;99.90;;;;;;5046672;28;20788;-81
2022/01/17 09:39:09;;;;;;;31.23;17.43;;;3.20;99.90;;;;;;5031193;28;20181;-81
2022/01/17 09:41:35;;;;;;;30.63;16.43;;;3.10;99.90;;;;;;5030240;28;20188;-81
2022/01/17 09:44:02;;;;;;;25.63;15.53;;;3.10;99.90;;;;;;5058702;28;20561;-82
2022/01/17 09:46:34;;;;;;;28.10;16.20;;;3.20;99.90;;;;;;5061185;28;20202;-81
2022/01/17 09:49:12;;;;;;;26.10;16.43;;;3.30;99.90;;;;;;5055686;28;20186;-81
2022/01/17 09:54:28;;;;;;;25.70;15.37;;;3.30;99.90;;;;;;5058464;28;20185;-81
2022/01/17 09:56:55;;;;;;;21.40;14.33;;;3.40;99.90;;;;;;5056965;28;20208;-82
2022/01/17 09:59:21;;;;;;;25.40;15.13;;;3.40;99.90;;;;;;5039027;28;20193;-82
2022/01/17 10:01:48;;;;;;;22.73;14.97;;;3.60;99.90;;;;;;5056370;28;20186;-82
2022/01/17 10:04:17;;;;;;;23.83;14.90;;;3.50;99.90;;;;;;5052020;28;20183;-81
2022/01/17 10:06:43;;;;;;;24.03;15.10;;;3.60;99.90;;;;;;5040684;28;20203;-82
2022/01/17 10:09:17;;;;;;;24.43;15.27;;;3.50;99.90;;;;;;5040290;28;20295;-82
2022/01/17 10:12:00;;;;;;;25.97;15.67;;;3.60;99.90;;;;;;5043250;28;20226;-82
2022/01/17 10:14:27;;;;;;;23.60;16.10;;;3.60;99.90;;;;;;5050156;28;20246;-82
2022/01/17 10:16:53;;;;;;;24.20;15.37;;;3.50;99.90;;;;;;5043576;28;20206;-82
2022/01/17 10:19:22;;;;;;;27.00;15.90;;;3.60;99.90;;;;;;5052176;28;20181;-81
2022/01/17 10:21:53;;;;;;;28.20;16.23;;;3.60;99.90;;;;;;5056592;28;20180;-81
2022/01/17 10:24:38;;;;;;;24.13;14.93;;;3.60;99.90;;;;;;5059106;28;20159;-83
2022/01/17 10:35:27;;;;;;;31.63;17.00;;;3.80;99.90;;;;;;5058188;28;20571;-80
2022/01/17 10:38:10;;;;;;;27.73;16.67;;;3.80;99.90;;;;;;5035898;28;20273;-83
2022/01/17 10:40:40;;;;;;;26.53;15.67;;;3.80;99.90;;;;;;5032889;28;20205;-83
2022/01/17 10:43:22;;;;;;;23.30;14.73;;;3.90;99.90;;;;;;5040098;28;20209;-82
2022/01/17 10:45:48;;;;;;;26.63;16.37;;;4.00;99.90;;;;;;5032311;28;20230;-81
2022/01/17 10:48:14;;;;;;;22.97;15.30;;;4.10;99.90;;;;;;5024924;28;20183;-83
2022/01/17 10:50:44;;;;;;;28.00;16.40;;;4.60;99.90;;;;;;5037329;28;20679;-81
2022/01/17 10:53:16;;;;;;;25.80;15.80;;;4.90;99.90;;;;;;5033769;28;20243;-82
2022/01/17 10:56:06;;;;;;;20.67;13.63;;;4.20;99.90;;;;;;5070599;22;20207;-81
2022/01/17 10:59:20;;;;;;;21.80;13.97;;;4.40;99.90;;;;;;5027119;28;20189;-83
2022/01/17 11:01:38;;;;;;;19.60;13.33;;;4.30;99.90;;;;;;5055374;28;20186;-82
2022/01/17 11:04:41;;;;;;;23.27;14.63;;;5.70;99.90;;;;;;5041012;28;20180;-82
2022/01/17 11:07:08;;;;;;;19.53;12.20;;;4.60;99.90;;;;;;5019520;28;20180;-83
2022/01/17 11:09:46;;;;;;;26.17;13.83;;;4.80;99.90;;;;;;5021237;28;20171;-82
2022/01/17 11:12:17;;;;;;;22.87;13.63;;;4.80;99.90;;;;;;5037344;28;20274;-83
2022/01/17 11:14:44;;;;;;;18.53;12.77;;;4.30;99.90;;;;;;5037921;28;21433;-82
2022/01/17 11:17:15;;;;;;;22.90;13.37;;;4.30;99.90;;;;;;5034213;28;20230;-82
2022/01/17 11:20:03;;;;;;;21.30;13.53;;;4.40;99.90;;;;;;5037140;28;20175;-82
2022/01/17 11:22:29;;;;;;;22.10;13.50;;;4.50;99.90;;;;;;5036704;28;20211;-81
2022/01/17 11:32:45;;;;;;;22.50;13.10;;;3.90;99.90;;;;;;4948238;28;20234;-84
2022/01/17 11:35:54;;;;;;;18.93;12.77;;;3.70;99.90;;;;;;4968926;28;20203;-84
2022/01/17 11:38:41;;;;;;;21.93;13.20;;;4.70;99.90;;;;;;5022344;28;20262;-82
2022/01/17 11:41:24;;;;;;;21.87;13.67;;;4.70;99.90;;;;;;5042551;28;20199;-83
2022/01/17 11:43:57;;;;;;;19.53;13.13;;;4.80;99.90;;;;;;5026610;28;20173;-82
2022/01/17 11:46:26;;;;;;;18.67;11.97;;;4.90;99.90;;;;;;5044878;28;20195;-83
2022/01/17 11:48:53;;;;;;;20.00;13.07;;;4.90;99.90;;;;;;5045015;28;20182;-82
2022/01/17 11:51:19;;;;;;;18.53;13.30;;;4.80;99.90;;;;;;5019920;28;20210;-82
2022/01/17 11:53:52;;;;;;;21.00;12.87;;;4.90;99.90;;;;;;5022230;28;20176;-82
2022/01/17 11:56:38;;;;;;;20.63;13.17;;;4.90;99.90;;;;;;5020035;28;20283;-84
2022/01/17 11:59:25;;;;;;;19.80;12.57;;;5.10;99.90;;;;;;5042849;28;20177;-83
2022/01/17 12:02:18;;;;;;;19.50;12.90;;;5.60;99.90;;;;;;5028184;28;20207;-84
2022/01/17 12:05:11;;;;;;;18.63;12.47;;;5.30;99.90;;;;;;5043713;28;20179;-82
2022/01/17 12:07:37;;;;;;;20.73;12.87;;;5.40;99.90;;;;;;5027370;28;20185;-83
2022/01/17 12:10:15;;;;;;;16.43;11.20;;;5.90;99.90;;;;;;5012715;28;20200;-82
2022/01/17 12:12:42;;;;;;;17.07;10.87;;;5.60;99.90;;;;;;5029731;28;20173;-83
2022/01/17 12:15:16;;;;;;;12.93;10.03;;;5.60;99.90;;;;;;5031565;28;20191;-83
2022/01/17 12:17:46;;;;;;;14.33;9.20;;;5.60;99.90;;;;;;5024950;28;20172;-82
2022/01/17 12:20:14;;;;;;;15.33;9.90;;;5.80;99.90;;;;;;5030727;28;20173;-83
2022/01/17 12:22:46;;;;;;;13.20;9.20;;;5.50;99.90;;;;;;5027048;28;20526;-82
2022/01/17 12:25:25;;;;;;;14.07;9.10;;;5.60;99.90;;;;;;5029336;28;20207;-84
2022/01/17 12:28:16;;;;;;;12.97;8.43;;;5.80;99.90;;;;;;5027840;28;20193;-82
2022/01/17 12:30:54;;;;;;;8.93;7.20;;;5.90;99.90;;;;;;5029613;28;20744;-81
2022/01/17 12:33:31;;;;;;;9.90;7.87;;;6.30;99.90;;;;;;5041976;28;20237;-82
2022/01/17 12:36:00;;;;;;;8.57;7.67;;;5.80;99.90;;;;;;5026645;28;20585;-83
2022/01/17 12:38:35;;;;;;;12.63;7.90;;;5.70;99.90;;;;;;5025388;28;20176;-82
2022/01/17 12:42:03;;;;;;;9.80;8.00;;;5.70;99.90;;;;;;5020296;28;20227;-83
2022/01/17 12:47:47;;;;;;;9.40;8.33;;;5.60;99.90;;;;;;5019572;28;20186;-82
2022/01/17 12:53:25;;;;;;;16.53;9.33;;;5.60;99.90;;;;;;5037566;28;20165;-82
2022/01/17 12:56:05;;;;;;;10.27;8.03;;;5.60;99.90;;;;;;5018462;28;20204;-82
2022/01/17 12:59:16;;;;;;;;;;;;;;;;;;;;;
2022/01/17 13:02:27;;;;;;;9.80;7.80;;;5.80;99.90;;;;;;5039974;28;20263;-82
2022/01/17 13:04:55;;;;;;;15.37;8.80;;;5.90;99.90;;;;;;5018510;28;20787;-82
2022/01/17 13:07:27;;;;;;;9.20;7.73;;;6.80;99.90;;;;;;5022619;28;20209;-83
2022/01/17 13:10:16;;;;;;;8.90;7.80;;;6.00;99.90;;;;;;5021777;28;20208;-82
2022/01/17 13:12:41;;;;;;;10.70;8.07;;;6.00;99.90;;;;;;5032717;28;20223;-83
2022/01/17 13:15:18;;;;;;;11.00;7.53;;;6.00;99.90;;;;;;5037369;28;20192;-85
2022/01/17 13:17:48;;;;;;;9.27;7.17;;;6.00;99.90;;;;;;5030800;28;20191;-85
2022/01/17 13:20:24;;;;;;;7.03;6.00;;;5.80;99.90;;;;;;5020710;28;20626;-85
2022/01/17 13:26:08;;;;;;;5.97;5.33;;;6.00;99.90;;;;;;4999377;28;20305;-83
2022/01/17 13:29:09;;;;;;;6.53;4.90;;;6.00;99.90;;;;;;4997965;28;20177;-84
2022/01/17 13:31:40;;;;;;;5.70;4.20;;;6.10;99.90;;;;;;5040690;28;20204;-82
2022/01/17 13:34:28;;;;;;;5.97;4.50;;;5.80;99.90;;;;;;5028245;28;20182;-81
2022/01/17 13:38:17;;;;;;;;;;;;;;;;;;;;;
2022/01/17 13:41:01;;;;;;;4.53;3.70;;;5.50;99.90;;;;;;4974735;28;20265;-84
2022/01/17 13:43:39;;;;;;;;;;;;;;;;;;;;;
2022/01/17 13:46:26;;;;;;;4.73;3.10;;;5.80;99.90;;;;;;5070067;22;20310;-84
2022/01/17 13:49:00;;;;;;;4.40;3.67;;;5.90;99.90;;;;;;5076191;28;20225;-84